Time;durP1;ratioP1;P1;durP2;ratioP2;P2;SDS_P1;SDS_P2;PMS_P1;PMS_P2;Temp;Humidity;BMP_temperature;BMP_pressure;BME280_temperature;BME280_humidity;BME280_pressure;Samples;Min_cycle;Max_cycle;Signal;HPM_P1;HPM_P2
2023/01/13 00:00:21;;;;;;;;;;;12.60;99.90;;;;;;5094094;28;19903;-72
2023/01/13 00:02:47;;;;;;;;;;;12.60;99.90;;;;;;5112687;28;19910;-72
2023/01/13 00:05:14;;;;;;;;;;;12.50;99.90;;;;;;5112304;28;19937;-71
2023/01/13 00:07:40;;;;;;;;;;;12.50;99.90;;;;;;5112477;28;20002;-71
2023/01/13 00:10:10;;;;;;;;;;;12.50;99.90;;;;;;5112718;28;20315;-71
2023/01/13 00:12:39;;;;;;;;;;;12.50;99.90;;;;;;5098487;28;19907;-72
2023/01/13 00:15:10;;;;;;;;;;;12.50;99.90;;;;;;5091956;28;19912;-71
2023/01/13 00:17:36;;;;;;;;;;;12.50;99.90;;;;;;5073573;28;19904;-72
2023/01/13 00:20:02;;;;;;;;;;;12.50;99.90;;;;;;5091997;28;19993;-71
2023/01/13 00:22:28;;;;;;;;;;;12.40;99.90;;;;;;5073538;28;19915;-72
2023/01/13 00:24:54;;;;;;;;;;;12.40;99.90;;;;;;5092107;28;19981;-71
2023/01/13 00:27:22;;;;;;;;;;;12.40;99.90;;;;;;5100155;28;20216;-71
2023/01/13 00:29:48;;;;;;;;;;;12.30;99.90;;;;;;5112487;28;19927;-71
2023/01/13 00:32:15;;;;;;;;;;;12.10;99.90;;;;;;5111981;28;19911;-71
2023/01/13 00:34:40;;;;;;;;;;;12.00;99.90;;;;;;5093120;28;19903;-71
2023/01/13 00:37:07;;;;;;;;;;;11.90;99.90;;;;;;5112009;28;19908;-72
2023/01/13 00:39:32;;;;;;;;;;;11.90;99.90;;;;;;5093583;28;20336;-73
2023/01/13 00:44:42;;;;;;;;;;;11.90;99.90;;;;;;5107395;28;19935;-71
2023/01/13 00:47:09;;;;;;;;;;;11.80;99.90;;;;;;5111837;28;20331;-71
2023/01/13 00:49:35;;;;;;;;;;;11.90;99.90;;;;;;5111779;28;19903;-71
2023/01/13 00:52:01;;;;;;;;;;;11.90;99.90;;;;;;5111790;28;19903;-71
2023/01/13 00:54:27;;;;;;;;;;;11.90;99.90;;;;;;5112016;28;20418;-70
2023/01/13 00:56:52;;;;;;;;;;;11.90;99.90;;;;;;5092974;28;19990;-70
2023/01/13 00:59:19;;;;;;;;;;;11.90;99.90;;;;;;5111650;28;19908;-66
2023/01/13 01:01:45;;;;;;;;;;;11.90;99.90;;;;;;5112030;28;19908;-69
2023/01/13 01:04:11;;;;;;;;;;;11.90;99.90;;;;;;5114498;28;19919;-69
2023/01/13 01:06:37;;;;;;;;;;;11.90;99.90;;;;;;5115918;28;20323;-71
2023/01/13 01:09:04;;;;;;;;;;;11.90;99.90;;;;;;5115877;28;19911;-72
2023/01/13 01:11:31;;;;;;;;;;;11.90;99.90;;;;;;5096901;28;20308;-71
2023/01/13 01:14:01;;;;;;;;;;;11.90;99.90;;;;;;5114599;28;19904;-73
2023/01/13 01:16:28;;;;;;;;;;;11.90;99.90;;;;;;5114563;28;19916;-71
2023/01/13 01:18:54;;;;;;;;;;;11.80;99.90;;;;;;5115330;28;19971;-71
2023/01/13 01:21:22;;;;;;;;;;;11.80;99.90;;;;;;5101337;28;20405;-71
2023/01/13 01:23:49;;;;;;;;;;;11.70;99.90;;;;;;5106139;28;19968;-72
2023/01/13 01:26:17;;;;;;;;;;;11.70;99.90;;;;;;5108393;28;19903;-71
2023/01/13 01:28:43;;;;;;;;;;;11.70;99.90;;;;;;5115504;28;19987;-71
2023/01/13 01:31:14;;;;;;;;;;;11.70;99.90;;;;;;5115414;28;20266;-72
2023/01/13 01:33:40;;;;;;;;;;;11.70;99.90;;;;;;5115668;28;20290;-72
2023/01/13 01:36:07;;;;;;;;;;;11.80;99.90;;;;;;5098595;28;19977;-71
2023/01/13 01:38:33;;;;;;;;;;;11.80;99.90;;;;;;5094740;28;19915;-72
2023/01/13 01:40:59;;;;;;;;;;;11.90;99.90;;;;;;5094842;28;19904;-72
2023/01/13 01:43:58;;;;;;;;;;;11.90;99.90;;;;;;5095478;28;20262;-69
2023/01/13 01:46:31;;;;;;;;;;;11.90;99.90;;;;;;5094913;28;19904;-72
2023/01/13 01:49:17;;;;;;;;;;;12.00;99.90;;;;;;5094684;28;19916;-71
2023/01/13 01:51:52;;;;;;;;;;;12.00;99.90;;;;;;5083774;28;20393;-71
2023/01/13 01:54:45;;;;;;;;;;;12.00;99.90;;;;;;5094397;28;19904;-69
2023/01/13 01:57:14;;;;;;;;;;;11.90;99.90;;;;;;5099171;28;19919;-71
2023/01/13 01:59:40;;;;;;;;;;;11.90;99.90;;;;;;5115077;28;19994;-67
2023/01/13 02:02:06;;;;;;;;;;;11.80;99.90;;;;;;5114728;28;20026;-72
2023/01/13 02:04:38;;;;;;;;;;;11.80;99.90;;;;;;5113807;28;19903;-71
2023/01/13 02:07:05;;;;;;;;;;;11.80;99.90;;;;;;5094460;28;19927;-72
2023/01/13 02:09:31;;;;;;;;;;;11.80;99.90;;;;;;5094144;28;19931;-71
2023/01/13 02:14:42;;;;;;;;;;;11.80;99.90;;;;;;5102306;28;19930;-68
2023/01/13 02:17:22;;;;;;;;;;;11.80;99.90;;;;;;5114576;28;19914;-72
2023/01/13 02:20:11;;;;;;;;;;;11.80;99.90;;;;;;5111938;28;19908;-72
2023/01/13 02:22:52;;;;;;;;;;;11.80;99.90;;;;;;5093762;28;19915;-71
2023/01/13 02:25:24;;;;;;;;;;;11.90;99.90;;;;;;5099136;28;20336;-71
2023/01/13 02:27:54;;;;;;;;;;;11.80;99.90;;;;;;5114070;28;19904;-72
2023/01/13 02:33:31;;;;;;;;;;;11.80;99.90;;;;;;5093831;28;20329;-72
2023/01/13 02:36:01;;;;;;;;;;;11.80;99.90;;;;;;5093989;28;19912;-72
2023/01/13 02:38:33;;;;;;;;;;;11.80;99.90;;;;;;5093924;28;19908;-71
2023/01/13 02:44:06;;;;;;;;;;;11.80;99.90;;;;;;5114607;28;20412;-71
2023/01/13 02:46:37;;;;;;;;;;;11.80;99.90;;;;;;5114167;28;19949;-71
2023/01/13 02:49:06;;;;;;;;;;;11.80;99.90;;;;;;5113890;28;19955;-73
2023/01/13 02:51:33;;;;;;;;;;;11.90;99.90;;;;;;5113828;28;20074;-73
2023/01/13 02:53:58;;;;;;;;;;;11.90;99.90;;;;;;5095288;28;19904;-71
2023/01/13 02:56:25;;;;;;;;;;;11.90;99.90;;;;;;5113749;28;20272;-71
2023/01/13 02:58:52;;;;;;;;;;;11.90;99.90;;;;;;5113863;28;19910;-72
2023/01/13 03:01:18;;;;;;;;;;;11.90;99.90;;;;;;5113600;28;19919;-71
2023/01/13 03:03:45;;;;;;;;;;;11.80;99.90;;;;;;5113919;28;20252;-72
2023/01/13 03:06:33;;;;;;;;;;;11.80;99.90;;;;;;5113506;28;19915;-71
2023/01/13 03:09:18;;;;;;;;;;;11.80;99.90;;;;;;5113858;28;19911;-71
2023/01/13 03:11:47;;;;;;;;;;;11.70;99.90;;;;;;5113487;28;19956;-70
2023/01/13 03:14:21;;;;;;;;;;;11.70;99.90;;;;;;5113846;28;19903;-71
2023/01/13 03:16:56;;;;;;;;;;;11.70;99.90;;;;;;5113702;28;19915;-70
2023/01/13 03:19:33;;;;;;;;;;;11.70;99.90;;;;;;5113510;28;19927;-71
2023/01/13 03:22:05;;;;;;;;;;;11.80;99.90;;;;;;5113658;28;20366;-70
2023/01/13 03:24:31;;;;;;;;;;;11.70;99.90;;;;;;5113286;28;20279;-71
2023/01/13 03:27:00;;;;;;;;;;;11.70;99.90;;;;;;5112506;28;19908;-71
2023/01/13 03:29:37;;;;;;;;;;;11.60;99.90;;;;;;5113032;28;19904;-71
2023/01/13 03:32:07;;;;;;;;;;;11.60;99.90;;;;;;5113411;28;19980;-70
2023/01/13 03:34:42;;;;;;;;;;;11.60;99.90;;;;;;5112918;28;19990;-72
2023/01/13 03:37:08;;;;;;;;;;;11.50;99.90;;;;;;5094222;28;19957;-71
2023/01/13 03:39:36;;;;;;;;;;;11.50;99.90;;;;;;5112728;28;19903;-67
2023/01/13 03:42:22;;;;;;;;;;;11.50;99.90;;;;;;5112525;28;19947;-71
2023/01/13 03:45:10;;;;;;;;;;;11.50;99.90;;;;;;5111986;28;19999;-71
2023/01/13 03:47:40;;;;;;;;;;;11.50;99.90;;;;;;5112974;28;19968;-72
2023/01/13 03:50:12;;;;;;;;;;;11.50;99.90;;;;;;5112640;28;19933;-72
2023/01/13 03:52:42;;;;;;;;;;;11.40;99.90;;;;;;5112570;28;19911;-71
2023/01/13 03:55:12;;;;;;;;;;;11.30;99.90;;;;;;5112221;28;19915;-71
2023/01/13 03:57:42;;;;;;;;;;;11.30;99.90;;;;;;5112203;28;19915;-71
2023/01/13 04:00:10;;;;;;;;;;;11.30;99.90;;;;;;5111940;28;20312;-71
2023/01/13 04:02:38;;;;;;;;;;;11.30;99.90;;;;;;5112362;28;19904;-71
2023/01/13 04:05:07;;;;;;;;;;;11.30;99.90;;;;;;5112899;28;19998;-71
2023/01/13 04:07:40;;;;;;;;;;;11.20;99.90;;;;;;5112909;28;19960;-71
2023/01/13 04:10:09;;;;;;;;;;;11.30;99.90;;;;;;5112947;28;20362;-71
2023/01/13 04:13:01;;;;;;;;;;;11.30;99.90;;;;;;5112890;28;19903;-69
2023/01/13 04:15:35;;;;;;;;;;;11.30;99.90;;;;;;5112145;28;20006;-71
2023/01/13 04:18:17;;;;;;;;;;;11.30;99.90;;;;;;5112358;28;19998;-72
2023/01/13 04:20:43;;;;;;;;;;;11.30;99.90;;;;;;5112418;28;19911;-69
2023/01/13 04:23:10;;;;;;;;;;;11.30;99.90;;;;;;5112630;28;19929;-71
2023/01/13 04:25:36;;;;;;;;;;;11.30;99.90;;;;;;5113329;28;20463;-71
2023/01/13 04:28:01;;;;;;;;;;;11.30;99.90;;;;;;5113175;28;19926;-71
2023/01/13 04:30:28;;;;;;;;;;;11.40;99.90;;;;;;5094851;28;20252;-70
2023/01/13 04:32:55;;;;;;;;;;;11.30;99.90;;;;;;5113356;28;19991;-71
2023/01/13 04:35:21;;;;;;;;;;;11.30;99.90;;;;;;5094546;28;19912;-72
2023/01/13 04:37:50;;;;;;;;;;;11.30;99.90;;;;;;5094744;28;19943;-71
2023/01/13 04:40:16;;;;;;;;;;;11.30;99.90;;;;;;5113189;28;19918;-73
2023/01/13 04:42:43;;;;;;;;;;;11.40;99.90;;;;;;5094234;28;19915;-67
2023/01/13 04:45:09;;;;;;;;;;;11.40;99.90;;;;;;5113407;28;20256;-71
2023/01/13 04:47:35;;;;;;;;;;;11.30;99.90;;;;;;5112856;28;19910;-71
2023/01/13 04:50:01;;;;;;;;;;;11.30;99.90;;;;;;5112894;28;19903;-71
2023/01/13 04:52:28;;;;;;;;;;;11.30;99.90;;;;;;5112955;28;19976;-72
2023/01/13 04:54:53;;;;;;;;;;;11.20;99.90;;;;;;5113195;28;20275;-72
2023/01/13 04:57:19;;;;;;;;;;;11.30;99.90;;;;;;5112626;28;20412;-72
2023/01/13 04:59:45;;;;;;;;;;;11.20;99.90;;;;;;5113138;28;19910;-72
2023/01/13 05:02:18;;;;;;;;;;;11.20;99.90;;;;;;5112430;28;19904;-72
2023/01/13 05:04:48;;;;;;;;;;;11.20;99.90;;;;;;5113098;28;19964;-72
2023/01/13 05:07:17;;;;;;;;;;;11.30;99.90;;;;;;5112936;28;19950;-72
2023/01/13 05:09:43;;;;;;;;;;;11.20;99.90;;;;;;5094696;28;19923;-71
2023/01/13 05:17:40;;;;;;;;;;;11.30;99.90;;;;;;5113142;28;19910;-72
2023/01/13 05:20:06;;;;;;;;;;;11.30;99.90;;;;;;5113306;28;19911;-72
2023/01/13 05:25:20;;;;;;;;;;;11.30;99.90;;;;;;5113530;28;19910;-73
2023/01/13 05:27:47;;;;;;;;;;;11.20;99.90;;;;;;5113037;28;19949;-72
2023/01/13 05:30:13;;;;;;;;;;;11.20;99.90;;;;;;5113259;28;19907;-72
2023/01/13 05:32:39;;;;;;;;;;;11.20;99.90;;;;;;5112975;28;19950;-72
2023/01/13 05:35:06;;;;;;;;;;;11.20;99.90;;;;;;5112940;28;20332;-72
2023/01/13 05:37:32;;;;;;;;;;;11.20;99.90;;;;;;5094620;28;19911;-72
2023/01/13 05:45:29;;;;;;;;;;;11.20;99.90;;;;;;5113148;28;20491;-72
2023/01/13 05:47:55;;;;;;;;;;;11.20;99.90;;;;;;5112987;28;20320;-72
2023/01/13 05:50:22;;;;;;;;;;;11.20;99.90;;;;;;5115268;28;19903;-72
2023/01/13 05:52:48;;;;;;;;;;;11.10;99.90;;;;;;5117080;28;19957;-73
2023/01/13 05:55:14;;;;;;;;;;;11.10;99.90;;;;;;5116733;28;20006;-73
2023/01/13 05:57:40;;;;;;;;;;;11.10;99.90;;;;;;5116333;28;19964;-72
2023/01/13 06:00:11;;;;;;;;;;;11.10;99.90;;;;;;5116392;28;19904;-77
2023/01/13 06:02:36;;;;;;;;;;;11.10;99.90;;;;;;5098336;28;19943;-73
2023/01/13 06:05:02;;;;;;;;;;;11.10;99.90;;;;;;5116327;28;19970;-72
2023/01/13 06:07:28;;;;;;;;;;;11.10;99.90;;;;;;5116169;28;20312;-72
2023/01/13 06:09:54;;;;;;;;;;;11.00;99.90;;;;;;5116174;28;19954;-72
2023/01/13 06:12:20;;;;;;;;;;;10.90;99.90;;;;;;5115739;28;19994;-72
2023/01/13 06:14:47;;;;;;;;;;;10.90;99.90;;;;;;5114583;28;20424;-69
2023/01/13 06:17:14;;;;;;;;;;;10.90;99.90;;;;;;5116345;28;19903;-72
2023/01/13 06:19:40;;;;;;;;;;;10.90;99.90;;;;;;5116147;28;20335;-72
2023/01/13 06:22:09;;;;;;;;;;;11.00;99.90;;;;;;5115883;28;19995;-72
2023/01/13 06:24:35;;;;;;;;;;;11.00;99.90;;;;;;5112798;28;19907;-69
2023/01/13 06:27:03;;;;;;;;;;;11.00;99.90;;;;;;5107284;28;19910;-72
2023/01/13 06:29:29;;;;;;;;;;;11.10;99.90;;;;;;5104943;28;19912;-68
2023/01/13 06:31:55;;;;;;;;;;;11.10;99.90;;;;;;5104372;28;20010;-72
2023/01/13 06:34:22;;;;;;;;;;;11.10;99.90;;;;;;5094594;28;19947;-71
2023/01/13 06:36:50;;;;;;;;;;;11.10;99.90;;;;;;5095095;28;19958;-71
2023/01/13 06:39:18;;;;;;;;;;;11.30;99.90;;;;;;5094759;28;20006;-72
2023/01/13 06:44:55;;;;;;;;;;;12.20;99.90;;;;;;5094351;28;20374;-80
2023/01/13 06:47:22;;;;;;;;;;;12.90;99.90;;;;;;5094593;28;19953;-74
2023/01/13 06:49:50;;;;;;;;;;;13.60;99.90;;;;;;5093762;28;20374;-73
2023/01/13 06:52:16;;;;;;;;;;;14.10;99.90;;;;;;5093560;28;19914;-72
2023/01/13 06:54:42;;;;;;;;;;;14.60;99.90;;;;;;5093365;28;20390;-68
2023/01/13 06:57:09;;;;;;;;;;;15.00;99.90;;;;;;5101265;28;20378;-72
2023/01/13 06:59:35;;;;;;;;;;;15.70;99.90;;;;;;5114197;28;19903;-71
2023/01/13 07:02:06;;;;;;;;;;;16.40;99.90;;;;;;5094121;28;19926;-72
2023/01/13 07:04:33;;;;;;;;;;;16.70;99.90;;;;;;5114183;28;19904;-72
2023/01/13 07:07:00;;;;;;;;;;;17.30;99.90;;;;;;5114153;28;20257;-72
2023/01/13 07:09:26;;;;;;;;;;;18.30;99.90;;;;;;5114072;28;19911;-72
2023/01/13 07:11:52;;;;;;;;;;;19.00;99.90;;;;;;5113573;28;20322;-74
2023/01/13 07:17:03;;;;;;;;;;;20.40;99.90;;;;;;5114035;28;19919;-74
2023/01/13 07:19:29;;;;;;;;;;;21.20;99.90;;;;;;5114217;28;19907;-74
2023/01/13 07:21:56;;;;;;;;;;;21.70;99.90;;;;;;5114164;28;19957;-73
2023/01/13 07:24:22;;;;;;;;;;;22.20;99.90;;;;;;5095676;28;19907;-72
2023/01/13 07:26:50;;;;;;;;;;;20.90;99.90;;;;;;5094980;28;20427;-72
2023/01/13 07:29:15;;;;;;;;;;;20.60;99.90;;;;;;5113964;28;19948;-71
2023/01/13 07:31:41;;;;;;;;;;;21.30;99.90;;;;;;5113979;28;20048;-72
2023/01/13 07:34:07;;;;;;;;;;;21.60;99.90;;;;;;5095576;28;19904;-71
2023/01/13 07:36:34;;;;;;;;;;;21.90;99.90;;;;;;5113484;28;19963;-72
2023/01/13 07:39:01;;;;;;;;;;;21.80;99.90;;;;;;5113038;28;20360;-72
2023/01/13 07:44:13;;;;;;;;;;;21.40;99.90;;;;;;5113987;28;20053;-72
2023/01/13 07:46:40;;;;;;;;;;;21.40;99.90;;;;;;5113187;28;19957;-70
2023/01/13 07:49:06;;;;;;;;;;;20.80;99.90;;;;;;5114184;28;19911;-73
2023/01/13 07:51:34;;;;;;;;;;;21.10;99.90;;;;;;5113947;28;19912;-72
2023/01/13 07:54:00;;;;;;;;;;;20.80;99.90;;;;;;5113528;28;20365;-71
2023/01/13 07:56:27;;;;;;;;;;;20.50;99.90;;;;;;5104855;28;19995;-73
2023/01/13 07:58:53;;;;;;;;;;;19.80;99.90;;;;;;5093176;28;20332;-68
2023/01/13 08:01:19;;;;;;;;;;;19.00;99.90;;;;;;5110943;28;19903;-71
2023/01/13 08:03:45;;;;;;;;;;;18.40;99.90;;;;;;5095051;28;19904;-72
2023/01/13 08:06:11;;;;;;;;;;;17.30;99.90;;;;;;5108475;28;20272;-72
2023/01/13 08:08:37;;;;;;;;;;;17.20;99.90;;;;;;5093162;28;19999;-73
2023/01/13 08:11:04;;;;;;;;;;;16.90;99.90;;;;;;5093360;28;19911;-72
2023/01/13 08:13:30;;;;;;;;;;;16.50;99.90;;;;;;5092625;28;20356;-71
2023/01/13 08:16:00;;;;;;;;;;;15.90;99.90;;;;;;5092724;28;19919;-71
2023/01/13 08:18:26;;;;;;;;;;;15.80;99.90;;;;;;5093040;28;20003;-72
2023/01/13 08:20:53;;;;;;;;;;;15.60;99.90;;;;;;5092907;28;19910;-73
2023/01/13 08:23:20;;;;;;;;;;;15.60;99.90;;;;;;5093416;28;20082;-73
2023/01/13 08:25:46;;;;;;;;;;;15.70;99.90;;;;;;5092849;28;20017;-73
2023/01/13 08:28:14;;;;;;;;;;;15.80;99.90;;;;;;5092843;28;19904;-72
2023/01/13 08:30:40;;;;;;;;;;;15.90;99.90;;;;;;5092888;28;19904;-71
2023/01/13 08:33:07;;;;;;;;;;;16.00;99.90;;;;;;5074420;28;19998;-72
2023/01/13 08:35:37;;;;;;;;;;;16.10;99.90;;;;;;5092923;28;19912;-71
2023/01/13 08:38:03;;;;;;;;;;;15.80;99.90;;;;;;5092608;28;19943;-72
2023/01/13 08:40:30;;;;;;;;;;;15.90;99.90;;;;;;5092412;28;20451;-69
2023/01/13 08:42:56;;;;;;;;;;;16.00;99.90;;;;;;5092187;28;19923;-71
2023/01/13 08:45:22;;;;;;;;;;;15.90;99.90;;;;;;5090934;28;19912;-71
2023/01/13 08:47:47;;;;;;;;;;;15.70;99.90;;;;;;5092150;28;19904;-69
2023/01/13 08:50:14;;;;;;;;;;;15.50;99.90;;;;;;5091562;28;19957;-71
2023/01/13 08:52:40;;;;;;;;;;;15.60;99.90;;;;;;5091605;28;20002;-71
2023/01/13 08:55:07;;;;;;;;;;;16.00;99.90;;;;;;5090076;28;19912;-71
2023/01/13 08:57:33;;;;;;;;;;;15.70;99.90;;;;;;5102662;28;19903;-71
2023/01/13 08:59:59;;;;;;;;;;;15.50;99.90;;;;;;5093475;28;19942;-69
2023/01/13 09:02:25;;;;;;;;;;;15.60;99.90;;;;;;5112101;28;19994;-71
2023/01/13 09:04:52;;;;;;;;;;;15.60;99.90;;;;;;5111748;28;19912;-70
2023/01/13 09:07:18;;;;;;;;;;;15.80;99.90;;;;;;5111846;28;19957;-71
2023/01/13 09:09:44;;;;;;;;;;;16.10;99.90;;;;;;5111933;28;19912;-71
2023/01/13 09:14:55;;;;;;;;;;;16.20;99.90;;;;;;5112425;28;20228;-71
2023/01/13 09:17:22;;;;;;;;;;;16.50;99.90;;;;;;5111934;28;19907;-71
2023/01/13 09:19:48;;;;;;;;;;;16.60;99.90;;;;;;5112976;28;20062;-71
2023/01/13 09:22:15;;;;;;;;;;;16.80;99.90;;;;;;5113035;28;19903;-71
2023/01/13 09:24:43;;;;;;;;;;;16.70;99.90;;;;;;5095597;28;19950;-70
2023/01/13 09:27:10;;;;;;;;;;;16.80;99.90;;;;;;5116691;28;19914;-70
2023/01/13 09:29:38;;;;;;;;;;;16.90;99.90;;;;;;5115608;28;19904;-71
2023/01/13 09:32:05;;;;;;;;;;;16.90;99.90;;;;;;5116455;28;20010;-71
2023/01/13 09:37:15;;;;;;;;;;;17.20;99.90;;;;;;5116398;28;20421;-71
2023/01/13 09:39:41;;;;;;;;;;;17.20;99.90;;;;;;5116079;28;19904;-71
2023/01/13 09:45:08;;;;;;;;;;;17.30;99.90;;;;;;5116629;28;20266;-71
2023/01/13 09:47:54;;;;;;;;;;;17.40;99.90;;;;;;5115968;28;19904;-71
2023/01/13 09:50:23;;;;;;;;;;;17.40;99.90;;;;;;5116343;28;19907;-69
2023/01/13 09:52:49;;;;;;;;;;;17.40;99.90;;;;;;5115829;28;19947;-70
2023/01/13 09:55:17;;;;;;;;;;;17.30;99.90;;;;;;5115281;28;20010;-70
2023/01/13 09:57:43;;;;;;;;;;;17.10;99.90;;;;;;5115177;28;19914;-68
2023/01/13 10:00:20;;;;;;;;;;;17.00;99.90;;;;;;5115663;28;19911;-69
2023/01/13 10:03:04;;;;;;;;;;;17.30;99.90;;;;;;5115216;28;19961;-71
2023/01/13 10:05:37;;;;;;;;;;;17.40;99.90;;;;;;5114556;28;19942;-70
2023/01/13 10:08:10;;;;;;;;;;;17.60;99.90;;;;;;5115135;28;19947;-71
2023/01/13 10:10:44;;;;;;;;;;;17.70;99.90;;;;;;5115626;28;20352;-69
2023/01/13 10:13:21;;;;;;;;;;;17.80;99.90;;;;;;5114615;28;20343;-71
2023/01/13 10:16:05;;;;;;;;;;;18.00;99.90;;;;;;5114607;28;19919;-70
2023/01/13 10:18:37;;;;;;;;;;;18.00;99.90;;;;;;5114950;28;19903;-71
2023/01/13 10:21:14;;;;;;;;;;;18.00;99.90;;;;;;5115293;28;19904;-71
2023/01/13 10:23:56;;;;;;;;;;;18.10;99.90;;;;;;5115125;28;19942;-70
2023/01/13 10:26:40;;;;;;;;;;;18.10;99.90;;;;;;5096120;28;20279;-70
2023/01/13 10:29:23;;;;;;;;;;;18.20;99.90;;;;;;5114638;28;20389;-70
2023/01/13 10:31:51;;;;;;;;;;;17.80;99.90;;;;;;5096323;28;19953;-71
2023/01/13 10:34:18;;;;;;;;;;;17.90;99.90;;;;;;5096066;28;19911;-71
2023/01/13 10:36:57;;;;;;;;;;;17.80;99.90;;;;;;5114530;28;19911;-71
2023/01/13 10:39:23;;;;;;;;;;;18.00;99.90;;;;;;5114882;28;19904;-71
2023/01/13 10:41:59;;;;;;;;;;;18.30;99.90;;;;;;5114374;28;19963;-70
2023/01/13 10:44:25;;;;;;;;;;;18.50;99.90;;;;;;5114576;28;19907;-68
2023/01/13 10:46:53;;;;;;;;;;;18.50;99.90;;;;;;5114230;28;19910;-69
2023/01/13 10:49:26;;;;;;;;;;;18.50;99.90;;;;;;5113891;28;20006;-69
2023/01/13 10:51:54;;;;;;;;;;;18.50;99.90;;;;;;5095755;28;19911;-69
2023/01/13 10:54:21;;;;;;;;;;;18.40;99.90;;;;;;5114390;28;19911;-69
2023/01/13 10:56:48;;;;;;;;;;;18.40;99.90;;;;;;5114177;28;20011;-69
2023/01/13 10:59:28;;;;;;;;;;;18.50;99.90;;;;;;5114171;28;19928;-67
2023/01/13 11:02:15;;;;;;;;;;;18.40;99.90;;;;;;5113937;28;19941;-70
2023/01/13 11:04:54;;;;;;;;;;;18.50;99.90;;;;;;5114083;28;19904;-68
2023/01/13 11:07:31;;;;;;;;;;;18.50;99.90;;;;;;5113902;28;19904;-69
2023/01/13 11:10:16;;;;;;;;;;;18.60;99.90;;;;;;5113639;28;20359;-69
2023/01/13 11:13:01;;;;;;;;;;;18.70;99.90;;;;;;5113251;28;19916;-67
2023/01/13 11:15:54;;;;;;;;;;;18.50;99.90;;;;;;5113995;28;19912;-68
2023/01/13 11:18:23;;;;;;;;;;;18.60;99.90;;;;;;5107576;28;20351;-69
2023/01/13 11:20:50;;;;;;;;;;;18.70;99.90;;;;;;5102470;28;19908;-67
2023/01/13 11:23:24;;;;;;;;;;;18.70;99.90;;;;;;5075356;28;19911;-69
2023/01/13 11:25:52;;;;;;;;;;;18.70;99.90;;;;;;5099210;28;19933;-69
2023/01/13 11:28:50;;;;;;;;;;;18.70;99.90;;;;;;5113442;28;19904;-69
2023/01/13 11:31:25;;;;;;;;;;;18.90;99.90;;;;;;5004491;28;20218;-70
2023/01/13 11:34:15;;;;;;;;;;;18.80;99.90;;;;;;5010296;28;20281;-70
2023/01/13 11:36:46;;;;;;;;;;;18.90;99.90;;;;;;5007947;28;19920;-69
2023/01/13 11:39:17;;;;;;;;;;;18.60;99.90;;;;;;5011526;28;19905;-70
2023/01/13 11:42:22;;;;;;;;;;;18.50;99.90;;;;;;5010915;28;19917;-71
2023/01/13 11:44:53;;;;;;;;;;;18.40;99.90;;;;;;5011262;28;19935;-71
2023/01/13 11:47:21;;;;;;;;;;;18.30;99.90;;;;;;5010658;28;20353;-70
2023/01/13 11:49:48;;;;;;;;;;;18.50;99.90;;;;;;5010781;28;20028;-71
2023/01/13 11:52:29;;;;;;;;;;;18.40;99.90;;;;;;5010918;28;20000;-68
2023/01/13 11:54:55;;;;;;;;;;;18.30;99.90;;;;;;5011130;28;20357;-71
2023/01/13 11:57:22;;;;;;;;;;;18.50;99.90;;;;;;5010654;28;19920;-70
2023/01/13 12:00:02;;;;;;;;;;;18.40;99.90;;;;;;4994568;28;19905;-70
2023/01/13 12:03:00;;;;;;;;;;;18.30;99.90;;;;;;4994469;28;19956;-71
2023/01/13 12:05:37;;;;;;;;;;;18.40;99.90;;;;;;4973750;28;19928;-69
2023/01/13 12:08:09;;;;;;;;;;;18.60;99.90;;;;;;5049582;28;19991;-69
2023/01/13 12:10:40;;;;;;;;;;;18.40;99.90;;;;;;5050150;28;19959;-69
2023/01/13 12:13:12;;;;;;;;;;;18.40;99.90;;;;;;5049743;28;19999;-69
2023/01/13 12:15:56;;;;;;;;;;;18.50;99.90;;;;;;5049668;28;20019;-70
2023/01/13 12:18:33;;;;;;;;;;;18.60;99.90;;;;;;5050175;28;19999;-69
2023/01/13 12:21:00;;;;;;;;;;;18.70;99.90;;;;;;5050747;28;19995;-69
2023/01/13 12:23:34;;;;;;;;;;;18.70;99.90;;;;;;5050264;28;19904;-69
2023/01/13 12:26:05;;;;;;;;;;;18.80;99.90;;;;;;5033646;28;19905;-67
2023/01/13 12:28:51;;;;;;;;;;;18.50;99.90;;;;;;5068508;28;19908;-69
2023/01/13 12:31:18;;;;;;;;;;;18.40;99.90;;;;;;5059337;28;19915;-69
2023/01/13 12:33:50;;;;;;;;;;;18.40;99.90;;;;;;5069460;28;19965;-70
2023/01/13 12:36:22;;;;;;;;;;;18.50;99.90;;;;;;5069889;28;19955;-69
2023/01/13 12:38:51;;;;;;;;;;;18.60;99.90;;;;;;5069946;28;19991;-70
2023/01/13 12:41:32;;;;;;;;;;;18.70;99.90;;;;;;5086439;28;19959;-69
2023/01/13 12:44:19;;;;;;;;;;;18.80;99.90;;;;;;5112960;28;19952;-70
2023/01/13 12:46:51;;;;;;;;;;;18.90;99.90;;;;;;5113024;28;19904;-70
2023/01/13 12:49:18;;;;;;;;;;;19.00;99.90;;;;;;5113095;28;20282;-70
2023/01/13 12:52:08;;;;;;;;;;;19.10;99.90;;;;;;5111527;28;19935;-69
2023/01/13 12:54:36;;;;;;;;;;;18.90;99.90;;;;;;5113256;28;19911;-70
2023/01/13 12:57:21;;;;;;;;;;;18.70;99.90;;;;;;5112432;28;19920;-70
2023/01/13 13:00:07;;;;;;;;;;;18.70;99.90;;;;;;5113985;28;19910;-70
2023/01/13 13:02:38;;;;;;;;;;;18.70;99.90;;;;;;5098438;28;19914;-71
2023/01/13 13:05:14;;;;;;;;;;;18.80;99.90;;;;;;5116489;28;19904;-71
2023/01/13 13:07:45;;;;;;;;;;;18.70;99.90;;;;;;5116627;28;19919;-69
2023/01/13 13:10:27;;;;;;;;;;;18.90;99.90;;;;;;5116975;28;19933;-69
2023/01/13 13:15:47;;;;;;;;;;;18.70;99.90;;;;;;5096069;28;19973;-66
2023/01/13 13:18:27;;;;;;;;;;;18.80;99.90;;;;;;5079362;28;19908;-69
2023/01/13 13:20:54;;;;;;;;;;;18.60;99.90;;;;;;5078399;28;19908;-69
2023/01/13 13:23:48;;;;;;;;;;;18.70;99.90;;;;;;5096681;28;19969;-69
2023/01/13 13:26:23;;;;;;;;;;;18.70;99.90;;;;;;5078908;28;19926;-71
2023/01/13 13:28:59;;;;;;;;;;;18.30;99.90;;;;;;5096380;28;19908;-68
2023/01/13 13:31:48;;;;;;;;;;;18.20;99.90;;;;;;5096884;28;19911;-68
2023/01/13 13:34:20;;;;;;;;;;;18.10;99.90;;;;;;5096539;28;19904;-68
2023/01/13 13:36:55;;;;;;;;;;;18.00;99.90;;;;;;5097018;28;19918;-69
2023/01/13 13:47:39;;;;;;;;;;;17.80;99.90;;;;;;5096522;28;20125;-69
2023/01/13 13:50:07;;;;;;;;;;;17.70;99.90;;;;;;5096669;28;19957;-69
2023/01/13 13:52:50;;;;;;;;;;;17.60;99.90;;;;;;5095944;28;19911;-69
2023/01/13 13:55:18;;;;;;;;;;;17.50;99.90;;;;;;5096411;28;19908;-68
2023/01/13 13:57:45;;;;;;;;;;;17.30;99.90;;;;;;5108359;28;20324;-69
2023/01/13 14:00:16;;;;;;;;;;;17.10;99.90;;;;;;5116176;28;19911;-65
2023/01/13 14:03:00;;;;;;;;;;;17.10;99.90;;;;;;5116118;28;19904;-65
2023/01/13 14:05:30;;;;;;;;;;;17.10;99.90;;;;;;5116393;28;19994;-68
2023/01/13 14:08:08;;;;;;;;;;;17.20;99.90;;;;;;5116291;28;20002;-69
2023/01/13 14:10:38;;;;;;;;;;;17.50;99.90;;;;;;5115459;28;19950;-69
2023/01/13 14:13:19;;;;;;;;;;;17.80;99.90;;;;;;5115813;28;20003;-69
2023/01/13 14:15:46;;;;;;;;;;;18.00;99.90;;;;;;5116442;28;19908;-70
2023/01/13 14:18:15;;;;;;;;;;;18.10;99.90;;;;;;5116027;28;19942;-68
2023/01/13 14:20:42;;;;;;;;;;;18.10;99.90;;;;;;5116375;28;19903;-69
2023/01/13 14:23:16;;;;;;;;;;;18.10;99.90;;;;;;5116218;28;19907;-69
2023/01/13 14:25:46;;;;;;;;;;;18.10;99.90;;;;;;5115684;28;20353;-65
2023/01/13 14:28:27;;;;;;;;;;;18.20;99.90;;;;;;5115246;28;19935;-70
2023/01/13 14:30:55;;;;;;;;;;;18.00;99.90;;;;;;5116303;28;19911;-69
2023/01/13 14:33:25;;;;;;;;;;;17.90;99.90;;;;;;5115754;28;19942;-70
2023/01/13 14:36:04;;;;;;;;;;;17.80;99.90;;;;;;5116076;28;19911;-70
2023/01/13 14:38:31;;;;;;;;;;;17.80;99.90;;;;;;5097257;28;19903;-69
2023/01/13 14:40:57;;;;;;;;;;;17.70;99.90;;;;;;5116278;28;19913;-70
2023/01/13 14:43:24;;;;;;;;;;;17.70;99.90;;;;;;5097309;28;19915;-69
2023/01/13 14:45:56;;;;;;;;;;;17.70;99.90;;;;;;5116012;28;19919;-69
2023/01/13 14:48:30;;;;;;;;;;;17.70;99.90;;;;;;5097931;28;19911;-69
2023/01/13 14:50:56;;;;;;;;;;;17.70;99.90;;;;;;5116426;28;19994;-69
2023/01/13 14:53:37;;;;;;;;;;;17.70;99.90;;;;;;5115211;28;19946;-69
2023/01/13 14:56:21;;;;;;;;;;;17.70;99.90;;;;;;5115629;28;19927;-69
2023/01/13 14:58:48;;;;;;;;;;;17.70;99.90;;;;;;5094761;28;19904;-70
2023/01/13 15:01:25;;;;;;;;;;;17.70;99.90;;;;;;5094897;28;19904;-70
2023/01/13 15:03:53;;;;;;;;;;;17.60;99.90;;;;;;5094684;28;19904;-69
2023/01/13 15:06:25;;;;;;;;;;;17.60;99.90;;;;;;5077076;28;19948;-66
2023/01/13 15:08:51;;;;;;;;;;;17.60;99.90;;;;;;5094767;28;19929;-69
2023/01/13 15:11:22;;;;;;;;;;;17.60;99.90;;;;;;5095386;28;19904;-70
2023/01/13 15:14:00;;;;;;;;;;;17.50;99.90;;;;;;5094326;28;19905;-69
2023/01/13 15:16:26;;;;;;;;;;;17.50;99.90;;;;;;5094744;28;19911;-67
2023/01/13 15:18:53;;;;;;;;;;;17.40;99.90;;;;;;5094595;28;19908;-68
2023/01/13 15:21:19;;;;;;;;;;;17.40;99.90;;;;;;5094640;28;20279;-69
2023/01/13 15:23:46;;;;;;;;;;;17.20;99.90;;;;;;5094604;28;19904;-70
2023/01/13 15:26:18;;;;;;;;;;;17.00;99.90;;;;;;5094277;28;19908;-69
2023/01/13 15:28:45;;;;;;;;;;;17.00;99.90;;;;;;5092996;28;19904;-68